Upper Saint Regis, New York
Current Conditions -  °F | °C
As of 9:51 PM on Monday 26 Jan 2015 (Local Time) from KSLK Reporting Station
Few Clouds Few Clouds  
Wind Chill: -10°   Ceiling: Unl
Heat Index:   Visibility: 10mi
Dew Point: -5°   Wind: 8mph
Humidity: 69%   Direction: 50°NE
Pressure: 29.93"   Gusts: NA
Location:  44.3663°N, 74.2493°W
Report Text: KSLK 270251Z AUTO 05007KT 10SM FEW120 M16/M21 A2993 RMK AO2 SLP179 T11611206 58004
Loading
Personal Weather Stations






























Interactive Weather Map New forecast layout! Learn more

10-Day Weather Forecast

Advertisements
Track Severe Weather on mobile